Freeport, IL

11:26 PM CST on December 07, 2019 (GMT -0600)
Albertus

Weather History for KFEP - November, 2019

Change the Weather History Date:

Sunday, November 17, 2019

  Actual Average Record
Temperature  
Mean Temperature 32 °F -  
Max Temperature 35 °F 45 °F 71 °F (2016)
Min Temperature 29 °F 27 °F 6 °F (2014)
Degree Days  
Heating Degree Days 33    
Moisture  
Dew Point 31 °F    
Average Humidity 95    
Maximum Humidity 100    
Minimum Humidity 81    
Precipitation  
Precipitation 0.19 in - - ()
Sea Level Pressure  
Sea Level Pressure 29.96 in    
Wind  
Wind Speed 5 mph (South)    
Max Wind Speed 13 mph    
Max Gust Speed -    
Visibility 5 miles    
Events Fog , Rain , Snow    
Averages and records for this station are not official NWS values.
T = Trace of Precipitation, MM = Missing Value Source: NWS Daily Summary

Daily Weather History Graph

Daily Weather History Graph

Search for Another Location

Airport or City:

Astronomy

Nov. 17, 2019 Rise Set
Actual Time 6:51 AM CST 4:35 PM CST
Civil Twilight 6:20 AM CST 5:05 PM CST
Nautical Twilight 5:46 AM CST 5:39 PM CST
Astronomical Twilight 5:13 AM CST 6:12 PM CST
Moon 9:10 PM CST (11/17) 11:38 AM CST (11/17)
Length of Visible Light 10h 44m
Length of Day
9h 44m
Waning Gibbous, 73% of the Moon is Illuminated
Nov 17
Waning Gibbous
Nov 19
Last Quarter
Nov 26
New
Dec 4
First Quarter
Dec 11
Full

Hourly Weather History & Observations

Time (CST) Temp. Windchill Dew Point Humidity Pressure Visibility Wind Dir Wind Speed Gust Speed Precip Events Conditions
12:15 AM 31.1 °F 26.4 °F 29.3 °F 93% 30.18 in 7.0 mi SE 4.6 mph - N/A   Clear
12:35 AM 30.7 °F 24.9 °F 29.1 °F 94% 30.17 in 7.0 mi SSE 5.8 mph - N/A   Clear
12:55 AM 30.7 °F 26.0 °F 29.1 °F 94% 30.16 in 7.0 mi SE 4.6 mph - N/A   Clear
1:15 AM 30.7 °F 24.9 °F 29.1 °F 94% 30.16 in 7.0 mi SSE 5.8 mph - N/A   Clear
1:35 AM 30.7 °F 24.1 °F 29.1 °F 94% 30.15 in 7.0 mi SSE 6.9 mph - N/A   Clear
1:55 AM 31.1 °F 25.4 °F 29.1 °F 92% 30.14 in 7.0 mi SSE 5.8 mph - N/A   Clear
2:35 AM 31.1 °F 24.5 °F 28.6 °F 90% 30.14 in 10.0 mi South 6.9 mph - N/A   Clear
2:55 AM 30.7 °F 24.9 °F 28.4 °F 91% 30.13 in 10.0 mi South 5.8 mph - N/A   Clear
3:15 AM 30.2 °F 25.4 °F 28.2 °F 92% 30.12 in 7.0 mi SSE 4.6 mph - N/A   Clear
3:35 AM 30.2 °F 24.3 °F 28.2 °F 92% 30.11 in 10.0 mi SSE 5.8 mph - N/A   Clear
3:55 AM 30.2 °F 22.6 °F 28.2 °F 92% 30.08 in 10.0 mi SE 8.1 mph - N/A   Clear
4:15 AM 29.7 °F 22.8 °F 28.0 °F 94% 30.09 in 10.0 mi SSE 6.9 mph - N/A   Clear
4:35 AM 29.3 °F 23.2 °F 27.9 °F 94% 30.09 in 10.0 mi SSE 5.8 mph - N/A   Clear
4:55 AM 29.3 °F 23.2 °F 28.0 °F 95% 30.08 in 7.0 mi SE 5.8 mph - N/A   Clear
5:15 AM 29.3 °F 23.2 °F 28.0 °F 95% 30.08 in 7.0 mi SSE 5.8 mph - N/A   Clear
5:35 AM 29.3 °F 22.3 °F 28.0 °F 95% 30.06 in 10.0 mi SE 6.9 mph - N/A   Clear
5:55 AM 29.7 °F 22.0 °F 28.0 °F 94% 30.04 in 7.0 mi SSE 8.1 mph - N/A   Clear
6:15 AM 29.7 °F 22.0 °F 28.2 °F 94% 30.04 in 7.0 mi SE 8.1 mph - N/A   Clear
6:35 AM 29.7 °F 24.7 °F 28.0 °F 94% 30.03 in 10.0 mi SE 4.6 mph - N/A   Mostly Cloudy
7:15 AM 30.2 °F - 28.2 °F 92% 30.03 in 7.0 mi Calm Calm - N/A   Overcast
7:35 AM 30.7 °F 24.9 °F 28.4 °F 91% 30.03 in 10.0 mi SSE 5.8 mph - N/A   Overcast
7:55 AM 31.3 °F 23.3 °F 28.4 °F 89% 30.01 in 7.0 mi SSE 9.2 mph - N/A   Overcast
8:15 AM 31.8 °F 22.3 °F 28.8 °F 88% 30.01 in 7.0 mi SSE 12.7 mph - N/A   Overcast
8:35 AM 32.0 °F 23.6 °F 28.9 °F 88% 30.00 in 7.0 mi SSE 10.4 mph - N/A   Overcast
8:55 AM 32.0 °F 24.8 °F 29.1 °F 89% 30.00 in 7.0 mi South 8.1 mph - N/A   Overcast
9:15 AM 32.7 °F 27.3 °F 29.1 °F 87% 29.99 in 7.0 mi South 5.8 mph - N/A   Overcast
9:35 AM 32.9 °F 24.7 °F 29.3 °F 87% 29.99 in 7.0 mi South 10.4 mph - N/A   Overcast
9:55 AM 33.3 °F 26.4 °F 29.8 °F 87% 29.98 in 7.0 mi South 8.1 mph - N/A   Overcast
10:15 AM 34.2 °F 26.8 °F 30.0 °F 85% 29.98 in 7.0 mi South 9.2 mph - N/A   Overcast
10:35 AM 34.9 °F 29.9 °F 30.0 °F 82% 29.97 in 7.0 mi South 5.8 mph - N/A   Overcast
10:55 AM 35.6 °F 28.6 °F 30.2 °F 81% 29.96 in 7.0 mi South 9.2 mph - N/A   Overcast
11:15 AM 35.6 °F 29.2 °F 31.1 °F 84% 29.96 in 7.0 mi South 8.1 mph - N/A   Overcast
11:35 AM 35.2 °F 29.5 °F 32.2 °F 89% 29.95 in 5.0 mi South 6.9 mph - N/A   Overcast
11:55 AM 34.9 °F 29.0 °F 33.1 °F 93% 29.94 in 4.0 mi SSW 6.9 mph - N/A   Overcast
12:15 PM 34.7 °F 29.6 °F 33.8 °F 97% 29.93 in 4.0 mi South 5.8 mph - N/A   Light Drizzle
12:35 PM 34.7 °F 30.6 °F 34.2 °F 98% 29.92 in 3.0 mi SSW 4.6 mph - 0.01 in Rain Light Rain
12:55 PM 34.3 °F 29.2 °F 34.3 °F 100% 29.92 in 2.0 mi South 5.8 mph - 0.03 in Rain Light Rain
1:15 PM 34.0 °F 31.0 °F 34.0 °F 100% 29.91 in 2.0 mi SSW 3.5 mph - 0.02 in Rain Light Rain
1:35 PM 34.2 °F 30.0 °F 34.2 °F 100% 29.90 in 2.0 mi SSW 4.6 mph - 0.03 in Rain Light Rain
1:55 PM 34.0 °F - 34.0 °F 100% 29.89 in 1.8 mi Calm Calm - 0.04 in Rain Light Rain
2:15 PM 34.2 °F - 34.2 °F 100% 29.88 in 1.5 mi Calm Calm - 0.01 in Rain Light Rain
2:35 PM 34.3 °F - 34.3 °F 100% 29.87 in 1.5 mi Calm Calm - 0.02 in   Light Drizzle
2:55 PM 34.5 °F - 34.5 °F 100% 29.86 in 1.8 mi Calm Calm - 0.03 in Rain Light Rain
3:15 PM 34.3 °F 31.4 °F 34.3 °F 100% 29.87 in 1.5 mi South 3.5 mph - 0.01 in   Light Drizzle
3:35 PM 34.0 °F 28.8 °F 34.0 °F 100% 29.88 in 1.2 mi SSW 5.8 mph - 0.02 in Rain Light Rain
3:55 PM 33.8 °F 29.6 °F 33.8 °F 100% 29.88 in 1.2 mi SSW 4.6 mph - 0.02 in Rain Light Rain
4:35 PM 33.6 °F - 33.6 °F 100% 29.87 in 2.0 mi Calm Calm - 0.01 in   Light Drizzle
4:55 PM 33.4 °F - 33.4 °F 100% 29.87 in 2.0 mi Calm Calm - 0.02 in Rain Light Rain
5:15 PM 33.3 °F - 33.3 °F 100% 29.87 in 2.0 mi Calm Calm - N/A Rain Light Rain
5:55 PM 32.9 °F - 32.9 °F 100% 29.88 in 2.0 mi Calm Calm - 0.02 in Rain Light Rain
6:15 PM 32.2 °F 28.9 °F 32.2 °F 100% 29.88 in 1.8 mi WSW 3.5 mph - N/A Snow Light Snow
6:35 PM 32.0 °F 28.7 °F 32.0 °F 100% 29.88 in 1.8 mi WSW 3.5 mph - 0.01 in Snow Light Snow
6:55 PM 32.0 °F 28.7 °F 32.0 °F 100% 29.88 in 1.5 mi West 3.5 mph - 0.01 in Snow Light Snow
7:15 PM 32.0 °F 28.7 °F 32.0 °F 100% 29.88 in 1.8 mi West 3.5 mph - N/A Snow Light Snow
7:35 PM 32.0 °F - 32.0 °F 100% 29.88 in 1.8 mi Calm Calm - N/A Snow Light Snow
7:55 PM 32.0 °F - 32.0 °F 100% 29.88 in 1.5 mi Calm Calm - 0.01 in Snow Light Snow
8:15 PM 32.0 °F - 32.0 °F 100% 29.87 in 1.5 mi Calm Calm - N/A Snow Light Snow
8:35 PM 32.0 °F - 32.0 °F 100% 29.87 in 1.2 mi Calm Calm - N/A Snow Light Snow
8:55 PM 32.0 °F 28.7 °F 32.0 °F 100% 29.86 in 1.5 mi West 3.5 mph - N/A Snow Light Snow
9:15 PM 32.0 °F 28.7 °F 32.0 °F 100% 29.86 in 1.2 mi West 3.5 mph - N/A Snow Light Snow
9:35 PM 32.0 °F 28.7 °F 32.0 °F 100% 29.86 in 1.2 mi WNW 3.5 mph - N/A   Overcast
9:55 PM 32.0 °F - 32.0 °F 100% 29.86 in 1.2 mi Calm Calm - 0.01 in Snow Light Snow
10:15 PM 32.0 °F 28.7 °F 32.0 °F 100% 29.85 in 1.2 mi West 3.5 mph - N/A   Overcast
10:35 PM 32.0 °F 28.7 °F 32.0 °F 100% 29.84 in 1.0 mi WNW 3.5 mph - N/A   Overcast
10:55 PM 32.0 °F 28.7 °F 32.0 °F 100% 29.83 in 0.8 mi West 3.5 mph - N/A   Overcast
11:15 PM 32.0 °F 27.5 °F 32.0 °F 100% 29.83 in 1.0 mi West 4.6 mph - N/A   Overcast
11:35 PM 32.0 °F 27.5 °F 32.0 °F 100% 29.82 in 0.5 mi West 4.6 mph - N/A Fog Fog
11:55 PM 32.0 °F 26.4 °F 32.0 °F 100% 29.83 in 0.8 mi West 5.8 mph - N/A   Overcast